sensor_id;sensor_type;location;lat;lon;timestamp;P1;durP1;ratioP1;P2;durP2;ratioP2
37455;SDS011;23316;50.718;7.328;2024-01-25T00:00:33;13.60;;;4.88;;
37455;SDS011;23316;50.718;7.328;2024-01-25T00:03:01;13.98;;;5.15;;
37455;SDS011;23316;50.718;7.328;2024-01-25T00:05:28;17.13;;;5.15;;
37455;SDS011;23316;50.718;7.328;2024-01-25T00:07:55;16.52;;;5.07;;
37455;SDS011;23316;50.718;7.328;2024-01-25T00:10:23;14.77;;;5.32;;
37455;SDS011;23316;50.718;7.328;2024-01-25T00:12:51;17.83;;;5.07;;
37455;SDS011;23316;50.718;7.328;2024-01-25T00:15:18;18.95;;;5.25;;
37455;SDS011;23316;50.718;7.328;2024-01-25T00:17:45;14.23;;;4.70;;
37455;SDS011;23316;50.718;7.328;2024-01-25T00:20:12;18.92;;;5.47;;
37455;SDS011;23316;50.718;7.328;2024-01-25T00:22:39;13.63;;;5.13;;
37455;SDS011;23316;50.718;7.328;2024-01-25T00:25:07;15.10;;;4.55;;
37455;SDS011;23316;50.718;7.328;2024-01-25T00:27:35;17.52;;;5.75;;
37455;SDS011;23316;50.718;7.328;2024-01-25T00:30:03;16.35;;;4.50;;
37455;SDS011;23316;50.718;7.328;2024-01-25T00:32:30;19.02;;;5.68;;
37455;SDS011;23316;50.718;7.328;2024-01-25T00:34:58;16.08;;;5.22;;
37455;SDS011;23316;50.718;7.328;2024-01-25T00:37:25;15.57;;;5.30;;
37455;SDS011;23316;50.718;7.328;2024-01-25T00:39:53;14.43;;;4.72;;
37455;SDS011;23316;50.718;7.328;2024-01-25T00:42:21;13.48;;;4.82;;
37455;SDS011;23316;50.718;7.328;2024-01-25T00:44:51;17.85;;;5.15;;
37455;SDS011;23316;50.718;7.328;2024-01-25T00:47:19;18.38;;;5.82;;
37455;SDS011;23316;50.718;7.328;2024-01-25T00:49:46;13.50;;;4.60;;
37455;SDS011;23316;50.718;7.328;2024-01-25T00:52:14;13.68;;;4.88;;
37455;SDS011;23316;50.718;7.328;2024-01-25T00:54:42;16.33;;;4.93;;
37455;SDS011;23316;50.718;7.328;2024-01-25T00:57:10;17.17;;;5.22;;
37455;SDS011;23316;50.718;7.328;2024-01-25T00:59:38;14.90;;;4.70;;
37455;SDS011;23316;50.718;7.328;2024-01-25T01:02:07;13.50;;;4.85;;
37455;SDS011;23316;50.718;7.328;2024-01-25T01:04:38;12.73;;;4.22;;
37455;SDS011;23316;50.718;7.328;2024-01-25T01:07:06;13.18;;;4.35;;
37455;SDS011;23316;50.718;7.328;2024-01-25T01:09:34;14.98;;;5.28;;
37455;SDS011;23316;50.718;7.328;2024-01-25T01:12:02;15.93;;;5.18;;
37455;SDS011;23316;50.718;7.328;2024-01-25T01:14:29;13.48;;;4.53;;
37455;SDS011;23316;50.718;7.328;2024-01-25T01:16:56;13.65;;;4.82;;
37455;SDS011;23316;50.718;7.328;2024-01-25T01:19:25;11.77;;;4.35;;
37455;SDS011;23316;50.718;7.328;2024-01-25T01:21:52;14.48;;;5.13;;
37455;SDS011;23316;50.718;7.328;2024-01-25T01:24:19;16.25;;;4.65;;
37455;SDS011;23316;50.718;7.328;2024-01-25T01:26:47;14.75;;;4.88;;
37455;SDS011;23316;50.718;7.328;2024-01-25T01:29:16;18.27;;;5.32;;
37455;SDS011;23316;50.718;7.328;2024-01-25T01:31:43;15.40;;;4.20;;
37455;SDS011;23316;50.718;7.328;2024-01-25T01:34:11;15.65;;;5.22;;
37455;SDS011;23316;50.718;7.328;2024-01-25T01:36:40;15.85;;;5.40;;
37455;SDS011;23316;50.718;7.328;2024-01-25T01:39:07;16.33;;;4.90;;
37455;SDS011;23316;50.718;7.328;2024-01-25T01:41:35;14.88;;;4.95;;
37455;SDS011;23316;50.718;7.328;2024-01-25T01:44:02;14.40;;;4.97;;
37455;SDS011;23316;50.718;7.328;2024-01-25T01:46:31;13.57;;;4.93;;
37455;SDS011;23316;50.718;7.328;2024-01-25T01:49:00;15.43;;;5.00;;
37455;SDS011;23316;50.718;7.328;2024-01-25T01:51:28;15.50;;;5.40;;
37455;SDS011;23316;50.718;7.328;2024-01-25T01:53:57;16.58;;;5.70;;
37455;SDS011;23316;50.718;7.328;2024-01-25T01:56:27;18.75;;;5.13;;
37455;SDS011;23316;50.718;7.328;2024-01-25T01:58:55;16.73;;;5.55;;
37455;SDS011;23316;50.718;7.328;2024-01-25T02:01:24;20.63;;;5.70;;
37455;SDS011;23316;50.718;7.328;2024-01-25T02:03:51;18.73;;;5.15;;
37455;SDS011;23316;50.718;7.328;2024-01-25T02:06:19;18.33;;;5.55;;
37455;SDS011;23316;50.718;7.328;2024-01-25T02:08:47;17.95;;;5.40;;
37455;SDS011;23316;50.718;7.328;2024-01-25T02:11:16;20.77;;;5.25;;
37455;SDS011;23316;50.718;7.328;2024-01-25T02:13:43;15.40;;;6.00;;
37455;SDS011;23316;50.718;7.328;2024-01-25T02:16:10;16.83;;;5.30;;
37455;SDS011;23316;50.718;7.328;2024-01-25T02:18:40;19.27;;;5.75;;
37455;SDS011;23316;50.718;7.328;2024-01-25T02:21:08;20.25;;;6.03;;
37455;SDS011;23316;50.718;7.328;2024-01-25T02:23:37;16.45;;;5.47;;
37455;SDS011;23316;50.718;7.328;2024-01-25T02:26:04;17.05;;;4.85;;
37455;SDS011;23316;50.718;7.328;2024-01-25T02:28:31;18.88;;;5.68;;
37455;SDS011;23316;50.718;7.328;2024-01-25T02:31:01;18.20;;;5.72;;
37455;SDS011;23316;50.718;7.328;2024-01-25T02:33:29;17.63;;;5.60;;
37455;SDS011;23316;50.718;7.328;2024-01-25T02:35:56;18.02;;;6.10;;
37455;SDS011;23316;50.718;7.328;2024-01-25T02:38:24;20.20;;;5.65;;
37455;SDS011;23316;50.718;7.328;2024-01-25T02:40:52;20.15;;;5.25;;
37455;SDS011;23316;50.718;7.328;2024-01-25T02:43:20;22.30;;;6.45;;
37455;SDS011;23316;50.718;7.328;2024-01-25T02:45:47;21.48;;;6.13;;
37455;SDS011;23316;50.718;7.328;2024-01-25T02:48:15;15.35;;;5.55;;
37455;SDS011;23316;50.718;7.328;2024-01-25T02:50:43;17.33;;;5.45;;
37455;SDS011;23316;50.718;7.328;2024-01-25T02:53:10;16.38;;;5.35;;
37455;SDS011;23316;50.718;7.328;2024-01-25T02:55:37;19.10;;;5.93;;
37455;SDS011;23316;50.718;7.328;2024-01-25T02:58:06;19.02;;;5.75;;
37455;SDS011;23316;50.718;7.328;2024-01-25T03:00:33;18.73;;;5.53;;
37455;SDS011;23316;50.718;7.328;2024-01-25T03:03:00;19.13;;;5.90;;
37455;SDS011;23316;50.718;7.328;2024-01-25T03:05:27;16.02;;;5.38;;
37455;SDS011;23316;50.718;7.328;2024-01-25T03:07:54;18.60;;;5.50;;
37455;SDS011;23316;50.718;7.328;2024-01-25T03:10:22;19.30;;;5.50;;
37455;SDS011;23316;50.718;7.328;2024-01-25T03:12:49;22.73;;;5.68;;
37455;SDS011;23316;50.718;7.328;2024-01-25T03:15:18;19.00;;;5.78;;
37455;SDS011;23316;50.718;7.328;2024-01-25T03:17:45;17.75;;;5.32;;
37455;SDS011;23316;50.718;7.328;2024-01-25T03:20:12;18.02;;;5.22;;
37455;SDS011;23316;50.718;7.328;2024-01-25T03:22:40;13.63;;;4.65;;
37455;SDS011;23316;50.718;7.328;2024-01-25T03:25:07;14.45;;;4.53;;
37455;SDS011;23316;50.718;7.328;2024-01-25T03:27:35;16.85;;;5.13;;
37455;SDS011;23316;50.718;7.328;2024-01-25T03:30:02;14.38;;;5.38;;
37455;SDS011;23316;50.718;7.328;2024-01-25T03:32:33;17.15;;;5.03;;
37455;SDS011;23316;50.718;7.328;2024-01-25T03:35:01;16.80;;;5.38;;
37455;SDS011;23316;50.718;7.328;2024-01-25T03:37:28;16.50;;;5.13;;
37455;SDS011;23316;50.718;7.328;2024-01-25T03:39:55;12.73;;;4.47;;
37455;SDS011;23316;50.718;7.328;2024-01-25T03:42:22;16.05;;;5.47;;
37455;SDS011;23316;50.718;7.328;2024-01-25T03:44:50;17.67;;;5.40;;
37455;SDS011;23316;50.718;7.328;2024-01-25T03:47:18;16.75;;;5.45;;
37455;SDS011;23316;50.718;7.328;2024-01-25T03:49:47;15.65;;;5.18;;
37455;SDS011;23316;50.718;7.328;2024-01-25T03:52:14;16.23;;;5.50;;
37455;SDS011;23316;50.718;7.328;2024-01-25T03:54:41;16.73;;;5.43;;
37455;SDS011;23316;50.718;7.328;2024-01-25T03:57:08;17.40;;;5.15;;
37455;SDS011;23316;50.718;7.328;2024-01-25T03:59:35;17.10;;;5.32;;
37455;SDS011;23316;50.718;7.328;2024-01-25T04:02:03;17.75;;;5.47;;
37455;SDS011;23316;50.718;7.328;2024-01-25T04:04:30;18.20;;;5.55;;
37455;SDS011;23316;50.718;7.328;2024-01-25T04:06:59;17.00;;;5.88;;
37455;SDS011;23316;50.718;7.328;2024-01-25T04:09:26;17.35;;;6.07;;
37455;SDS011;23316;50.718;7.328;2024-01-25T04:11:53;20.00;;;5.40;;
37455;SDS011;23316;50.718;7.328;2024-01-25T04:14:20;17.55;;;5.40;;
37455;SDS011;23316;50.718;7.328;2024-01-25T04:16:48;18.02;;;5.22;;
37455;SDS011;23316;50.718;7.328;2024-01-25T04:19:15;19.13;;;5.80;;
37455;SDS011;23316;50.718;7.328;2024-01-25T04:21:43;17.50;;;5.47;;
37455;SDS011;23316;50.718;7.328;2024-01-25T04:24:11;20.00;;;6.40;;
37455;SDS011;23316;50.718;7.328;2024-01-25T04:26:39;22.42;;;5.70;;
37455;SDS011;23316;50.718;7.328;2024-01-25T04:29:06;19.08;;;5.85;;
37455;SDS011;23316;50.718;7.328;2024-01-25T04:31:33;19.38;;;5.75;;
37455;SDS011;23316;50.718;7.328;2024-01-25T04:34:00;17.27;;;6.22;;
37455;SDS011;23316;50.718;7.328;2024-01-25T04:36:27;18.98;;;5.30;;
37455;SDS011;23316;50.718;7.328;2024-01-25T04:38:54;22.27;;;6.18;;
37455;SDS011;23316;50.718;7.328;2024-01-25T04:41:23;19.00;;;5.95;;
37455;SDS011;23316;50.718;7.328;2024-01-25T04:43:50;19.13;;;6.15;;
37455;SDS011;23316;50.718;7.328;2024-01-25T04:46:17;20.42;;;6.13;;
37455;SDS011;23316;50.718;7.328;2024-01-25T04:48:45;19.63;;;6.38;;
37455;SDS011;23316;50.718;7.328;2024-01-25T04:51:14;16.02;;;5.60;;
37455;SDS011;23316;50.718;7.328;2024-01-25T04:53:42;22.20;;;6.38;;
37455;SDS011;23316;50.718;7.328;2024-01-25T04:56:10;22.25;;;6.28;;
37455;SDS011;23316;50.718;7.328;2024-01-25T04:58:38;22.10;;;6.65;;
37455;SDS011;23316;50.718;7.328;2024-01-25T05:01:05;18.75;;;5.70;;
37455;SDS011;23316;50.718;7.328;2024-01-25T05:03:33;20.98;;;6.43;;
37455;SDS011;23316;50.718;7.328;2024-01-25T05:06:00;19.20;;;6.45;;
37455;SDS011;23316;50.718;7.328;2024-01-25T05:08:27;25.40;;;7.40;;
37455;SDS011;23316;50.718;7.328;2024-01-25T05:10:54;21.35;;;6.55;;
37455;SDS011;23316;50.718;7.328;2024-01-25T05:13:22;21.63;;;6.90;;
37455;SDS011;23316;50.718;7.328;2024-01-25T05:15:51;21.88;;;6.85;;
37455;SDS011;23316;50.718;7.328;2024-01-25T05:18:18;21.52;;;6.85;;
37455;SDS011;23316;50.718;7.328;2024-01-25T05:20:45;35.95;;;7.70;;
37455;SDS011;23316;50.718;7.328;2024-01-25T05:23:12;23.58;;;6.60;;
37455;SDS011;23316;50.718;7.328;2024-01-25T05:25:39;25.50;;;7.05;;
37455;SDS011;23316;50.718;7.328;2024-01-25T05:28:07;25.35;;;6.05;;
37455;SDS011;23316;50.718;7.328;2024-01-25T05:30:34;21.17;;;5.97;;
37455;SDS011;23316;50.718;7.328;2024-01-25T05:33:03;26.02;;;6.47;;
37455;SDS011;23316;50.718;7.328;2024-01-25T05:35:30;26.13;;;8.15;;
37455;SDS011;23316;50.718;7.328;2024-01-25T05:37:59;66.25;;;19.45;;
37455;SDS011;23316;50.718;7.328;2024-01-25T05:40:26;47.35;;;16.27;;
37455;SDS011;23316;50.718;7.328;2024-01-25T05:42:53;33.05;;;12.88;;
37455;SDS011;23316;50.718;7.328;2024-01-25T05:45:20;28.38;;;10.30;;
37455;SDS011;23316;50.718;7.328;2024-01-25T05:47:51;37.13;;;8.68;;
37455;SDS011;23316;50.718;7.328;2024-01-25T05:50:20;25.40;;;8.93;;
37455;SDS011;23316;50.718;7.328;2024-01-25T05:52:47;22.27;;;7.93;;
37455;SDS011;23316;50.718;7.328;2024-01-25T05:55:14;20.38;;;7.60;;
37455;SDS011;23316;50.718;7.328;2024-01-25T05:57:42;22.23;;;8.25;;
37455;SDS011;23316;50.718;7.328;2024-01-25T06:00:12;21.42;;;7.43;;
37455;SDS011;23316;50.718;7.328;2024-01-25T06:02:41;23.50;;;7.82;;
37455;SDS011;23316;50.718;7.328;2024-01-25T06:05:09;21.75;;;7.50;;
37455;SDS011;23316;50.718;7.328;2024-01-25T06:07:38;21.50;;;8.25;;
37455;SDS011;23316;50.718;7.328;2024-01-25T06:10:06;34.10;;;11.65;;
37455;SDS011;23316;50.718;7.328;2024-01-25T06:12:34;26.20;;;9.05;;
37455;SDS011;23316;50.718;7.328;2024-01-25T06:15:01;24.38;;;7.80;;
37455;SDS011;23316;50.718;7.328;2024-01-25T06:17:28;24.80;;;7.35;;
37455;SDS011;23316;50.718;7.328;2024-01-25T06:19:57;20.58;;;6.85;;
37455;SDS011;23316;50.718;7.328;2024-01-25T06:22:24;18.88;;;6.93;;
37455;SDS011;23316;50.718;7.328;2024-01-25T06:24:52;21.67;;;6.68;;
37455;SDS011;23316;50.718;7.328;2024-01-25T06:27:20;24.75;;;6.95;;
37455;SDS011;23316;50.718;7.328;2024-01-25T06:29:47;20.45;;;7.28;;
37455;SDS011;23316;50.718;7.328;2024-01-25T06:32:14;24.48;;;7.40;;
37455;SDS011;23316;50.718;7.328;2024-01-25T06:34:41;18.90;;;5.95;;
37455;SDS011;23316;50.718;7.328;2024-01-25T06:37:08;25.77;;;7.05;;
37455;SDS011;23316;50.718;7.328;2024-01-25T06:39:37;22.35;;;6.25;;
37455;SDS011;23316;50.718;7.328;2024-01-25T06:42:06;19.42;;;6.60;;
37455;SDS011;23316;50.718;7.328;2024-01-25T06:44:33;40.67;;;6.57;;
37455;SDS011;23316;50.718;7.328;2024-01-25T06:47:00;21.80;;;6.07;;
37455;SDS011;23316;50.718;7.328;2024-01-25T06:49:28;15.50;;;5.57;;
37455;SDS011;23316;50.718;7.328;2024-01-25T06:51:55;20.45;;;5.47;;
37455;SDS011;23316;50.718;7.328;2024-01-25T06:54:22;21.38;;;6.47;;
37455;SDS011;23316;50.718;7.328;2024-01-25T06:56:49;29.45;;;7.10;;
37455;SDS011;23316;50.718;7.328;2024-01-25T06:59:18;19.90;;;5.43;;
37455;SDS011;23316;50.718;7.328;2024-01-25T07:01:45;26.20;;;6.82;;
37455;SDS011;23316;50.718;7.328;2024-01-25T07:04:13;22.33;;;7.03;;
37455;SDS011;23316;50.718;7.328;2024-01-25T07:06:40;26.92;;;7.07;;
37455;SDS011;23316;50.718;7.328;2024-01-25T07:09:07;48.42;;;8.07;;
37455;SDS011;23316;50.718;7.328;2024-01-25T07:11:34;30.02;;;6.90;;
37455;SDS011;23316;50.718;7.328;2024-01-25T07:14:02;30.45;;;7.38;;
37455;SDS011;23316;50.718;7.328;2024-01-25T07:16:30;25.00;;;7.00;;
37455;SDS011;23316;50.718;7.328;2024-01-25T07:18:57;19.58;;;6.22;;
37455;SDS011;23316;50.718;7.328;2024-01-25T07:21:25;21.25;;;6.70;;
37455;SDS011;23316;50.718;7.328;2024-01-25T07:23:52;23.05;;;6.20;;
37455;SDS011;23316;50.718;7.328;2024-01-25T07:26:19;22.73;;;6.72;;
37455;SDS011;23316;50.718;7.328;2024-01-25T07:28:48;20.52;;;6.53;;
37455;SDS011;23316;50.718;7.328;2024-01-25T07:31:15;22.88;;;6.72;;
37455;SDS011;23316;50.718;7.328;2024-01-25T07:33:43;31.58;;;7.10;;
37455;SDS011;23316;50.718;7.328;2024-01-25T07:36:11;28.08;;;7.35;;
37455;SDS011;23316;50.718;7.328;2024-01-25T07:38:38;23.38;;;7.43;;
37455;SDS011;23316;50.718;7.328;2024-01-25T07:41:05;23.20;;;6.47;;
37455;SDS011;23316;50.718;7.328;2024-01-25T07:43:32;23.00;;;6.70;;
37455;SDS011;23316;50.718;7.328;2024-01-25T07:46:00;23.17;;;7.20;;
37455;SDS011;23316;50.718;7.328;2024-01-25T07:48:27;18.77;;;6.15;;
37455;SDS011;23316;50.718;7.328;2024-01-25T07:50:56;20.23;;;6.60;;
37455;SDS011;23316;50.718;7.328;2024-01-25T07:53:23;21.42;;;6.57;;
37455;SDS011;23316;50.718;7.328;2024-01-25T07:55:50;19.35;;;6.38;;
37455;SDS011;23316;50.718;7.328;2024-01-25T07:58:18;22.50;;;6.70;;
37455;SDS011;23316;50.718;7.328;2024-01-25T08:00:45;22.40;;;6.18;;
37455;SDS011;23316;50.718;7.328;2024-01-25T08:03:14;22.77;;;6.63;;
37455;SDS011;23316;50.718;7.328;2024-01-25T08:05:41;22.50;;;6.18;;
37455;SDS011;23316;50.718;7.328;2024-01-25T08:08:11;19.92;;;6.07;;
37455;SDS011;23316;50.718;7.328;2024-01-25T08:10:38;18.67;;;5.78;;
37455;SDS011;23316;50.718;7.328;2024-01-25T08:13:05;24.85;;;6.55;;
37455;SDS011;23316;50.718;7.328;2024-01-25T08:15:32;15.50;;;5.40;;
37455;SDS011;23316;50.718;7.328;2024-01-25T08:17:59;21.80;;;6.15;;
37455;SDS011;23316;50.718;7.328;2024-01-25T08:20:28;25.50;;;6.88;;
37455;SDS011;23316;50.718;7.328;2024-01-25T08:22:55;23.73;;;7.22;;
37455;SDS011;23316;50.718;7.328;2024-01-25T08:25:24;26.33;;;7.30;;
37455;SDS011;23316;50.718;7.328;2024-01-25T08:27:52;22.15;;;7.00;;
37455;SDS011;23316;50.718;7.328;2024-01-25T08:30:19;26.70;;;7.40;;
37455;SDS011;23316;50.718;7.328;2024-01-25T08:32:46;22.60;;;7.32;;
37455;SDS011;23316;50.718;7.328;2024-01-25T08:35:14;22.15;;;7.22;;
37455;SDS011;23316;50.718;7.328;2024-01-25T08:37:41;23.83;;;6.82;;
37455;SDS011;23316;50.718;7.328;2024-01-25T08:40:09;22.77;;;7.07;;
37455;SDS011;23316;50.718;7.328;2024-01-25T08:42:38;30.95;;;7.75;;
37455;SDS011;23316;50.718;7.328;2024-01-25T08:45:06;26.55;;;7.28;;
37455;SDS011;23316;50.718;7.328;2024-01-25T08:47:35;26.27;;;7.50;;
37455;SDS011;23316;50.718;7.328;2024-01-25T08:50:02;27.17;;;7.10;;
37455;SDS011;23316;50.718;7.328;2024-01-25T08:52:31;25.52;;;6.55;;
37455;SDS011;23316;50.718;7.328;2024-01-25T08:54:59;22.52;;;6.55;;
37455;SDS011;23316;50.718;7.328;2024-01-25T08:57:26;30.77;;;9.48;;
37455;SDS011;23316;50.718;7.328;2024-01-25T08:59:54;26.00;;;7.70;;
37455;SDS011;23316;50.718;7.328;2024-01-25T09:02:23;23.98;;;7.55;;
37455;SDS011;23316;50.718;7.328;2024-01-25T09:04:53;21.17;;;6.30;;
37455;SDS011;23316;50.718;7.328;2024-01-25T09:07:20;23.20;;;6.97;;
37455;SDS011;23316;50.718;7.328;2024-01-25T09:09:48;26.00;;;6.65;;
37455;SDS011;23316;50.718;7.328;2024-01-25T09:12:15;18.88;;;6.22;;
37455;SDS011;23316;50.718;7.328;2024-01-25T09:14:42;33.47;;;6.72;;
37455;SDS011;23316;50.718;7.328;2024-01-25T09:17:11;22.67;;;6.70;;
37455;SDS011;23316;50.718;7.328;2024-01-25T09:19:39;18.25;;;5.57;;
37455;SDS011;23316;50.718;7.328;2024-01-25T09:22:06;20.98;;;6.32;;
37455;SDS011;23316;50.718;7.328;2024-01-25T09:24:35;19.45;;;5.35;;
37455;SDS011;23316;50.718;7.328;2024-01-25T09:27:05;18.45;;;5.68;;
37455;SDS011;23316;50.718;7.328;2024-01-25T09:29:33;19.67;;;5.07;;
37455;SDS011;23316;50.718;7.328;2024-01-25T09:32:00;17.73;;;5.13;;
37455;SDS011;23316;50.718;7.328;2024-01-25T09:34:28;16.40;;;5.10;;
37455;SDS011;23316;50.718;7.328;2024-01-25T09:36:56;15.88;;;5.20;;
37455;SDS011;23316;50.718;7.328;2024-01-25T09:39:23;16.38;;;5.18;;
37455;SDS011;23316;50.718;7.328;2024-01-25T09:41:50;16.02;;;5.15;;
37455;SDS011;23316;50.718;7.328;2024-01-25T09:44:17;14.80;;;5.15;;
37455;SDS011;23316;50.718;7.328;2024-01-25T09:46:45;13.93;;;4.30;;
37455;SDS011;23316;50.718;7.328;2024-01-25T09:49:12;13.38;;;4.55;;
37455;SDS011;23316;50.718;7.328;2024-01-25T09:51:41;13.23;;;4.65;;
37455;SDS011;23316;50.718;7.328;2024-01-25T09:54:11;12.23;;;4.53;;
37455;SDS011;23316;50.718;7.328;2024-01-25T09:56:40;15.48;;;4.63;;
37455;SDS011;23316;50.718;7.328;2024-01-25T09:59:08;13.23;;;4.75;;
37455;SDS011;23316;50.718;7.328;2024-01-25T10:01:37;13.00;;;4.93;;
37455;SDS011;23316;50.718;7.328;2024-01-25T10:04:06;16.08;;;4.68;;
37455;SDS011;23316;50.718;7.328;2024-01-25T10:06:33;14.77;;;4.90;;
37455;SDS011;23316;50.718;7.328;2024-01-25T10:09:02;14.00;;;4.72;;
37455;SDS011;23316;50.718;7.328;2024-01-25T10:11:34;11.57;;;4.43;;
37455;SDS011;23316;50.718;7.328;2024-01-25T10:14:03;13.52;;;4.22;;
37455;SDS011;23316;50.718;7.328;2024-01-25T10:16:32;13.68;;;4.75;;
37455;SDS011;23316;50.718;7.328;2024-01-25T10:18:59;14.65;;;4.10;;
37455;SDS011;23316;50.718;7.328;2024-01-25T10:21:28;12.30;;;4.57;;
37455;SDS011;23316;50.718;7.328;2024-01-25T10:23:55;11.77;;;4.35;;
37455;SDS011;23316;50.718;7.328;2024-01-25T10:26:27;14.13;;;4.70;;
37455;SDS011;23316;50.718;7.328;2024-01-25T10:28:54;14.65;;;5.15;;
37455;SDS011;23316;50.718;7.328;2024-01-25T10:31:22;13.25;;;4.32;;
37455;SDS011;23316;50.718;7.328;2024-01-25T10:33:51;14.05;;;4.53;;
37455;SDS011;23316;50.718;7.328;2024-01-25T10:36:20;16.65;;;4.45;;
37455;SDS011;23316;50.718;7.328;2024-01-25T10:38:48;12.50;;;4.78;;
37455;SDS011;23316;50.718;7.328;2024-01-25T10:41:16;15.70;;;4.65;;
37455;SDS011;23316;50.718;7.328;2024-01-25T10:43:47;14.88;;;4.65;;
37455;SDS011;23316;50.718;7.328;2024-01-25T10:46:14;13.77;;;4.53;;
37455;SDS011;23316;50.718;7.328;2024-01-25T10:48:42;16.17;;;4.97;;
37455;SDS011;23316;50.718;7.328;2024-01-25T10:51:10;16.15;;;4.53;;
37455;SDS011;23316;50.718;7.328;2024-01-25T10:53:40;13.20;;;4.03;;
37455;SDS011;23316;50.718;7.328;2024-01-25T10:56:07;10.98;;;3.90;;
37455;SDS011;23316;50.718;7.328;2024-01-25T10:58:35;13.80;;;3.88;;
37455;SDS011;23316;50.718;7.328;2024-01-25T11:01:07;9.00;;;3.60;;
37455;SDS011;23316;50.718;7.328;2024-01-25T11:03:38;13.70;;;3.95;;
37455;SDS011;23316;50.718;7.328;2024-01-25T11:06:06;16.63;;;3.90;;
37455;SDS011;23316;50.718;7.328;2024-01-25T11:08:35;19.95;;;4.28;;
37455;SDS011;23316;50.718;7.328;2024-01-25T11:11:05;18.15;;;4.43;;
37455;SDS011;23316;50.718;7.328;2024-01-25T11:13:34;26.60;;;4.18;;
37455;SDS011;23316;50.718;7.328;2024-01-25T11:16:15;16.13;;;4.45;;
37455;SDS011;23316;50.718;7.328;2024-01-25T11:18:47;22.30;;;4.38;;
37455;SDS011;23316;50.718;7.328;2024-01-25T11:21:22;14.50;;;4.38;;
37455;SDS011;23316;50.718;7.328;2024-01-25T11:23:58;13.70;;;4.75;;
37455;SDS011;23316;50.718;7.328;2024-01-25T11:26:29;17.75;;;5.38;;
37455;SDS011;23316;50.718;7.328;2024-01-25T11:28:59;13.80;;;4.60;;
37455;SDS011;23316;50.718;7.328;2024-01-25T11:31:28;9.27;;;3.53;;
37455;SDS011;23316;50.718;7.328;2024-01-25T11:33:56;15.35;;;3.88;;
37455;SDS011;23316;50.718;7.328;2024-01-25T11:36:25;13.05;;;3.53;;
37455;SDS011;23316;50.718;7.328;2024-01-25T11:38:52;8.32;;;3.13;;
37455;SDS011;23316;50.718;7.328;2024-01-25T11:41:20;13.45;;;3.88;;
37455;SDS011;23316;50.718;7.328;2024-01-25T11:43:48;10.50;;;3.58;;
37455;SDS011;23316;50.718;7.328;2024-01-25T11:46:15;13.43;;;4.45;;
37455;SDS011;23316;50.718;7.328;2024-01-25T11:48:45;9.80;;;3.38;;
37455;SDS011;23316;50.718;7.328;2024-01-25T11:51:12;7.55;;;3.00;;
37455;SDS011;23316;50.718;7.328;2024-01-25T11:53:39;11.43;;;3.80;;
37455;SDS011;23316;50.718;7.328;2024-01-25T11:56:07;11.32;;;3.60;;
37455;SDS011;23316;50.718;7.328;2024-01-25T11:58:36;10.98;;;4.00;;
37455;SDS011;23316;50.718;7.328;2024-01-25T12:01:05;11.07;;;3.45;;
37455;SDS011;23316;50.718;7.328;2024-01-25T12:03:33;11.43;;;3.40;;
37455;SDS011;23316;50.718;7.328;2024-01-25T12:06:04;7.47;;;2.75;;
37455;SDS011;23316;50.718;7.328;2024-01-25T12:08:32;11.75;;;3.65;;
37455;SDS011;23316;50.718;7.328;2024-01-25T12:11:03;9.85;;;3.53;;
37455;SDS011;23316;50.718;7.328;2024-01-25T12:13:32;10.25;;;4.10;;
37455;SDS011;23316;50.718;7.328;2024-01-25T12:16:00;9.30;;;3.35;;
37455;SDS011;23316;50.718;7.328;2024-01-25T12:18:29;11.38;;;3.88;;
37455;SDS011;23316;50.718;7.328;2024-01-25T12:20:57;12.20;;;3.70;;
37455;SDS011;23316;50.718;7.328;2024-01-25T12:23:34;13.82;;;4.07;;
37455;SDS011;23316;50.718;7.328;2024-01-25T12:26:01;13.30;;;4.28;;
37455;SDS011;23316;50.718;7.328;2024-01-25T12:28:30;10.35;;;3.72;;
37455;SDS011;23316;50.718;7.328;2024-01-25T12:30:58;12.50;;;3.67;;
37455;SDS011;23316;50.718;7.328;2024-01-25T12:33:26;13.35;;;3.60;;
37455;SDS011;23316;50.718;7.328;2024-01-25T12:35:54;11.60;;;3.72;;
37455;SDS011;23316;50.718;7.328;2024-01-25T12:38:21;9.88;;;3.67;;
37455;SDS011;23316;50.718;7.328;2024-01-25T12:40:51;10.57;;;3.63;;
37455;SDS011;23316;50.718;7.328;2024-01-25T12:43:19;10.45;;;3.97;;
37455;SDS011;23316;50.718;7.328;2024-01-25T12:45:47;12.18;;;3.95;;
37455;SDS011;23316;50.718;7.328;2024-01-25T12:48:15;12.73;;;4.18;;
37455;SDS011;23316;50.718;7.328;2024-01-25T12:50:42;8.45;;;3.08;;
37455;SDS011;23316;50.718;7.328;2024-01-25T12:53:10;12.27;;;3.78;;
37455;SDS011;23316;50.718;7.328;2024-01-25T12:55:38;9.98;;;3.63;;
37455;SDS011;23316;50.718;7.328;2024-01-25T12:58:07;7.28;;;3.42;;
37455;SDS011;23316;50.718;7.328;2024-01-25T13:00:34;11.73;;;3.55;;
37455;SDS011;23316;50.718;7.328;2024-01-25T13:03:01;12.88;;;3.67;;
37455;SDS011;23316;50.718;7.328;2024-01-25T13:05:29;10.48;;;3.70;;
37455;SDS011;23316;50.718;7.328;2024-01-25T13:07:59;9.82;;;2.92;;
37455;SDS011;23316;50.718;7.328;2024-01-25T13:10:27;11.18;;;3.35;;
37455;SDS011;23316;50.718;7.328;2024-01-25T13:12:54;10.82;;;3.63;;
37455;SDS011;23316;50.718;7.328;2024-01-25T13:15:23;9.38;;;3.40;;
37455;SDS011;23316;50.718;7.328;2024-01-25T13:17:50;8.68;;;3.08;;
37455;SDS011;23316;50.718;7.328;2024-01-25T13:20:17;9.73;;;3.67;;
37455;SDS011;23316;50.718;7.328;2024-01-25T13:22:45;10.95;;;3.38;;
37455;SDS011;23316;50.718;7.328;2024-01-25T13:25:12;7.93;;;2.85;;
37455;SDS011;23316;50.718;7.328;2024-01-25T13:27:40;8.27;;;2.97;;
37455;SDS011;23316;50.718;7.328;2024-01-25T13:30:08;15.02;;;4.93;;
37455;SDS011;23316;50.718;7.328;2024-01-25T13:32:38;9.45;;;3.45;;
37455;SDS011;23316;50.718;7.328;2024-01-25T13:35:05;13.68;;;4.32;;
37455;SDS011;23316;50.718;7.328;2024-01-25T13:37:33;18.48;;;4.57;;
37455;SDS011;23316;50.718;7.328;2024-01-25T13:40:00;18.08;;;4.95;;
37455;SDS011;23316;50.718;7.328;2024-01-25T13:42:29;17.35;;;4.65;;
37455;SDS011;23316;50.718;7.328;2024-01-25T13:44:57;18.75;;;5.30;;
37455;SDS011;23316;50.718;7.328;2024-01-25T13:47:24;11.73;;;4.10;;
37455;SDS011;23316;50.718;7.328;2024-01-25T13:49:52;14.32;;;3.53;;
37455;SDS011;23316;50.718;7.328;2024-01-25T13:52:20;15.20;;;4.00;;
37455;SDS011;23316;50.718;7.328;2024-01-25T13:54:47;13.00;;;3.97;;
37455;SDS011;23316;50.718;7.328;2024-01-25T13:57:15;32.08;;;13.43;;
37455;SDS011;23316;50.718;7.328;2024-01-25T13:59:42;116.80;;;60.83;;
37455;SDS011;23316;50.718;7.328;2024-01-25T14:02:10;85.80;;;47.60;;
37455;SDS011;23316;50.718;7.328;2024-01-25T14:04:37;51.22;;;25.13;;
37455;SDS011;23316;50.718;7.328;2024-01-25T14:07:06;37.47;;;16.85;;
37455;SDS011;23316;50.718;7.328;2024-01-25T14:09:33;48.72;;;14.25;;
37455;SDS011;23316;50.718;7.328;2024-01-25T14:12:00;27.13;;;9.80;;
37455;SDS011;23316;50.718;7.328;2024-01-25T14:14:28;34.60;;;7.95;;
37455;SDS011;23316;50.718;7.328;2024-01-25T14:16:55;29.90;;;6.88;;
37455;SDS011;23316;50.718;7.328;2024-01-25T14:19:22;21.30;;;6.25;;
37455;SDS011;23316;50.718;7.328;2024-01-25T14:21:49;19.60;;;6.35;;
37455;SDS011;23316;50.718;7.328;2024-01-25T14:24:18;22.35;;;6.10;;
37455;SDS011;23316;50.718;7.328;2024-01-25T14:26:45;20.65;;;6.10;;
37455;SDS011;23316;50.718;7.328;2024-01-25T14:29:13;26.98;;;5.15;;
37455;SDS011;23316;50.718;7.328;2024-01-25T14:31:40;21.63;;;6.20;;
37455;SDS011;23316;50.718;7.328;2024-01-25T14:34:07;33.10;;;6.05;;
37455;SDS011;23316;50.718;7.328;2024-01-25T14:36:35;19.73;;;5.65;;
37455;SDS011;23316;50.718;7.328;2024-01-25T14:39:03;23.63;;;5.70;;